Time;durP1;ratioP1;P1;durP2;ratioP2;P2;SDS_P1;SDS_P2;PMS_P1;PMS_P2;Temp;Humidity;BMP_temperature;BMP_pressure;BME280_temperature;BME280_humidity;BME280_pressure;Samples;Min_cycle;Max_cycle;Signal;HPM_P1;HPM_P2
2022/10/29 00:00:52;;;;;;;13.05;4.62;;;12.40;99.90;;;;;;1909069;74;22508;-73
2022/10/29 00:03:20;;;;;;;8.58;3.80;;;12.40;99.90;;;;;;1905695;74;21540;-73
2022/10/29 00:06:01;;;;;;;7.37;2.92;;;12.30;99.90;;;;;;1908299;74;21568;-73
2022/10/29 00:08:29;;;;;;;10.53;3.50;;;12.30;99.90;;;;;;1889693;74;21155;-73
2022/10/29 00:10:56;;;;;;;6.25;3.20;;;12.30;99.90;;;;;;1902632;74;21467;-74
2022/10/29 00:13:24;;;;;;;8.78;4.10;;;12.40;99.90;;;;;;1904220;74;21234;-73
2022/10/29 00:15:51;;;;;;;6.92;2.90;;;12.20;99.90;;;;;;1901119;74;21547;-73
2022/10/29 00:18:18;;;;;;;9.68;2.92;;;12.30;99.90;;;;;;1906588;73;21152;-73
2022/10/29 00:20:47;;;;;;;10.98;3.50;;;12.20;99.90;;;;;;1908760;74;21082;-74
2022/10/29 00:23:14;;;;;;;18.85;4.12;;;12.30;99.90;;;;;;1909062;73;22531;-73
2022/10/29 00:25:42;;;;;;;8.28;3.67;;;12.20;99.90;;;;;;1908708;74;21089;-73
2022/10/29 00:28:09;;;;;;;9.00;2.83;;;12.20;99.90;;;;;;1897831;74;21072;-72
2022/10/29 00:30:36;;;;;;;8.63;3.37;;;12.20;99.90;;;;;;1904710;74;21593;-74
2022/10/29 00:33:09;;;;;;;4.90;2.72;;;12.20;99.90;;;;;;1913252;73;21078;-73
2022/10/29 00:35:36;;;;;;;9.15;3.83;;;12.20;99.90;;;;;;1910899;74;21152;-73
2022/10/29 00:38:03;;;;;;;9.05;3.30;;;12.10;99.90;;;;;;1902837;74;21209;-74
2022/10/29 00:40:31;;;;;;;10.50;3.50;;;12.00;99.90;;;;;;1905327;74;21160;-74
2022/10/29 00:43:15;;;;;;;10.90;3.55;;;11.90;99.90;;;;;;1866734;74;21060;-74
2022/10/29 00:45:46;;;;;;;25.23;3.87;;;12.00;99.90;;;;;;1898492;74;21140;-73
2022/10/29 00:48:13;;;;;;;7.65;2.87;;;12.00;99.90;;;;;;1892479;74;21152;-73
2022/10/29 00:50:40;;;;;;;13.35;3.50;;;12.00;99.90;;;;;;1901767;74;21249;-74
2022/10/29 00:53:07;;;;;;;5.92;3.10;;;12.00;99.90;;;;;;1898754;74;21074;-74
2022/10/29 00:55:35;;;;;;;6.33;3.35;;;12.00;99.90;;;;;;1911850;74;21044;-73
2022/10/29 00:58:02;;;;;;;8.23;2.92;;;12.00;99.90;;;;;;1894955;74;21078;-74
2022/10/29 01:00:29;;;;;;;4.20;2.80;;;12.00;99.90;;;;;;1906339;73;21173;-74
2022/10/29 01:02:57;;;;;;;12.37;3.58;;;12.00;99.90;;;;;;1905166;74;21039;-74
2022/10/29 01:05:25;;;;;;;9.03;3.25;;;12.00;99.90;;;;;;1901306;74;21085;-74
2022/10/29 01:07:52;;;;;;;9.68;3.87;;;12.00;99.90;;;;;;1897018;74;21084;-73
2022/10/29 01:10:23;;;;;;;9.63;3.45;;;12.00;99.90;;;;;;1904389;74;21130;-74
2022/10/29 01:13:02;;;;;;;6.35;2.80;;;12.00;99.90;;;;;;1901879;74;21187;-74
2022/10/29 01:15:42;;;;;;;12.00;3.87;;;12.00;99.90;;;;;;1895600;74;21074;-74
2022/10/29 01:18:29;;;;;;;8.53;3.22;;;12.00;99.90;;;;;;1909841;74;21082;-74
2022/10/29 01:21:04;;;;;;;9.25;3.90;;;12.00;99.90;;;;;;1905468;74;21516;-74
2022/10/29 01:24:06;;;;;;;15.55;3.30;;;12.00;99.90;;;;;;1912050;74;21383;-74
2022/10/29 01:26:40;;;;;;;14.58;3.77;;;12.00;99.90;;;;;;1898117;74;21233;-74
2022/10/29 01:29:36;;;;;;;9.45;3.70;;;12.00;99.90;;;;;;1908335;73;21214;-74
2022/10/29 01:32:11;;;;;;;6.80;3.15;;;12.00;99.90;;;;;;1902640;74;21136;-73
2022/10/29 01:35:04;;;;;;;9.83;3.37;;;12.00;99.90;;;;;;1895913;74;21077;-73
2022/10/29 01:37:43;;;;;;;7.90;3.45;;;12.00;99.90;;;;;;1897206;74;21144;-73
2022/10/29 01:40:34;;;;;;;9.03;3.22;;;12.10;99.90;;;;;;1913341;74;21070;-73
2022/10/29 01:43:04;;;;;;;13.50;3.33;;;12.10;99.90;;;;;;1899644;74;21190;-74
2022/10/29 01:45:37;;;;;;;6.87;3.10;;;12.10;99.90;;;;;;1906069;74;21129;-74
2022/10/29 01:48:13;;;;;;;6.60;3.08;;;12.00;99.90;;;;;;1904907;73;21081;-73
2022/10/29 01:50:42;;;;;;;14.95;3.60;;;12.10;99.90;;;;;;1905257;74;21225;-73
2022/10/29 01:53:09;;;;;;;12.20;3.23;;;12.20;99.90;;;;;;1863110;74;21078;-73
2022/10/29 01:55:36;;;;;;;8.55;3.25;;;12.10;99.90;;;;;;1907708;74;21418;-73
2022/10/29 01:58:07;;;;;;;8.95;2.90;;;12.10;99.90;;;;;;1901734;74;21172;-74
2022/10/29 02:01:03;;;;;;;12.30;3.67;;;12.10;99.90;;;;;;1900392;74;21490;-74
2022/10/29 02:03:48;;;;;;;8.60;3.30;;;12.20;99.90;;;;;;1901094;74;21066;-73
2022/10/29 02:06:27;;;;;;;8.50;3.40;;;12.20;99.90;;;;;;1906871;74;21091;-73
2022/10/29 02:09:22;;;;;;;6.10;2.87;;;12.20;99.90;;;;;;1875811;74;21097;-73
2022/10/29 02:11:52;;;;;;;8.43;2.92;;;12.10;99.90;;;;;;1901013;74;21489;-74
2022/10/29 02:14:31;;;;;;;9.35;3.40;;;12.10;99.90;;;;;;1895080;74;21078;-73
2022/10/29 02:16:59;;;;;;;15.25;3.42;;;11.90;99.90;;;;;;1896078;74;21075;-74
2022/10/29 02:19:33;;;;;;;14.00;3.45;;;11.90;99.90;;;;;;1902029;74;21168;-74
2022/10/29 02:22:02;;;;;;;8.78;3.42;;;11.90;99.90;;;;;;1898864;73;21215;-74
2022/10/29 02:24:29;;;;;;;10.75;3.60;;;11.90;99.90;;;;;;1894507;74;21180;-73
2022/10/29 02:26:57;;;;;;;6.92;2.90;;;11.90;99.90;;;;;;1903831;73;21170;-74
2022/10/29 02:29:24;;;;;;;10.63;3.42;;;11.90;99.90;;;;;;1893687;74;21070;-74
2022/10/29 02:31:51;;;;;;;10.85;3.70;;;11.90;99.90;;;;;;1903941;74;21144;-73
2022/10/29 02:34:18;;;;;;;4.78;3.02;;;11.90;99.90;;;;;;1908339;74;21042;-74
2022/10/29 02:36:46;;;;;;;11.55;3.72;;;11.80;99.90;;;;;;1898993;74;21077;-75
2022/10/29 02:39:13;;;;;;;7.10;3.17;;;11.80;99.90;;;;;;1911329;74;21151;-74
2022/10/29 02:41:42;;;;;;;7.92;3.92;;;11.90;99.90;;;;;;1901202;74;21121;-74
2022/10/29 02:44:09;;;;;;;11.10;3.45;;;11.90;99.90;;;;;;1915891;74;21511;-74
2022/10/29 02:46:38;;;;;;;10.28;4.05;;;11.90;99.90;;;;;;1898458;74;21048;-75
2022/10/29 02:49:06;;;;;;;9.53;3.10;;;12.00;99.90;;;;;;1910516;73;21148;-73
2022/10/29 02:51:34;;;;;;;6.72;3.10;;;12.00;99.90;;;;;;1899309;74;21485;-74
2022/10/29 02:54:01;;;;;;;7.00;3.10;;;11.90;99.90;;;;;;1906925;74;21151;-74
2022/10/29 02:56:28;;;;;;;10.78;2.92;;;11.90;99.90;;;;;;1892205;73;21152;-73
2022/10/29 02:58:55;;;;;;;7.35;3.27;;;12.00;99.90;;;;;;1898236;74;21078;-74
2022/10/29 03:01:23;;;;;;;8.45;3.15;;;12.00;99.90;;;;;;1912523;74;21148;-74
2022/10/29 03:03:50;;;;;;;8.20;3.42;;;12.00;99.90;;;;;;1899666;74;21086;-74
2022/10/29 03:06:18;;;;;;;11.85;3.52;;;12.10;99.90;;;;;;1911199;74;21082;-74
2022/10/29 03:08:45;;;;;;;7.17;3.22;;;12.10;99.90;;;;;;1914592;74;21082;-73
2022/10/29 03:11:13;;;;;;;7.83;3.20;;;12.10;99.90;;;;;;1895601;74;21071;-73
2022/10/29 03:13:40;;;;;;;10.15;3.22;;;12.10;99.90;;;;;;1904870;74;21105;-73
2022/10/29 03:16:07;;;;;;;9.25;3.37;;;12.10;99.90;;;;;;1904806;74;21094;-73
2022/10/29 03:18:35;;;;;;;8.50;3.90;;;12.20;99.90;;;;;;1910288;74;21289;-74
2022/10/29 03:21:02;;;;;;;10.45;3.10;;;12.10;99.90;;;;;;1906104;74;21184;-74
2022/10/29 03:23:29;;;;;;;9.63;3.50;;;12.10;99.90;;;;;;1902600;74;21160;-75
2022/10/29 03:25:57;;;;;;;10.35;3.65;;;12.20;99.90;;;;;;1918331;74;21048;-75
2022/10/29 03:28:26;;;;;;;12.25;3.85;;;12.10;99.90;;;;;;1909514;74;21155;-74
2022/10/29 03:30:54;;;;;;;8.70;3.02;;;12.20;99.90;;;;;;1901458;73;21226;-75
2022/10/29 03:33:25;;;;;;;5.33;2.83;;;12.10;99.90;;;;;;1897613;74;21506;-75
2022/10/29 03:35:59;;;;;;;7.53;2.85;;;12.10;99.90;;;;;;1893667;74;21486;-75
2022/10/29 03:38:26;;;;;;;12.43;3.80;;;12.20;99.90;;;;;;1904555;74;21209;-74
2022/10/29 03:40:54;;;;;;;8.23;3.50;;;12.30;99.90;;;;;;1910202;74;21169;-74
2022/10/29 03:43:21;;;;;;;9.08;3.62;;;12.20;99.90;;;;;;1905832;74;21541;-74
2022/10/29 03:45:53;;;;;;;7.15;3.67;;;12.10;99.90;;;;;;1911393;74;21047;-74
2022/10/29 03:48:21;;;;;;;11.15;3.60;;;12.20;99.90;;;;;;1906228;74;21070;-73
2022/10/29 03:50:55;;;;;;;7.33;3.12;;;12.10;99.90;;;;;;1916468;74;21085;-73
2022/10/29 03:53:23;;;;;;;10.53;2.90;;;12.10;99.90;;;;;;1892022;74;21147;-74
2022/10/29 03:55:52;;;;;;;5.40;3.20;;;12.10;99.90;;;;;;1894009;74;21148;-72
2022/10/29 03:58:19;;;;;;;12.55;3.50;;;12.10;99.90;;;;;;1897541;73;21093;-74
2022/10/29 04:01:00;;;;;;;11.38;3.80;;;12.00;99.90;;;;;;1903218;74;21075;-73
2022/10/29 04:03:29;;;;;;;11.40;3.70;;;12.00;99.90;;;;;;1892829;74;21483;-74
2022/10/29 04:05:56;;;;;;;17.48;3.25;;;12.00;99.90;;;;;;1894701;74;21086;-73
2022/10/29 04:08:24;;;;;;;10.43;3.25;;;12.00;99.90;;;;;;1893953;73;21079;-73
2022/10/29 04:10:52;;;;;;;7.87;3.65;;;12.10;99.90;;;;;;1898573;74;21081;-74
2022/10/29 04:13:19;;;;;;;9.43;3.22;;;12.00;99.90;;;;;;1914266;73;21498;-73
2022/10/29 04:15:46;;;;;;;9.55;3.00;;;12.10;99.90;;;;;;1910809;74;21139;-72
2022/10/29 04:18:14;;;;;;;10.75;3.27;;;12.10;99.90;;;;;;1912130;73;21074;-74
2022/10/29 04:20:41;;;;;;;15.90;3.65;;;12.10;99.90;;;;;;1898499;74;21114;-72
2022/10/29 04:23:08;;;;;;;10.38;3.35;;;12.00;99.90;;;;;;1889161;74;21066;-73
2022/10/29 04:25:36;;;;;;;7.30;3.45;;;12.00;99.90;;;;;;1899051;74;21079;-73
2022/10/29 04:28:03;;;;;;;10.82;3.42;;;12.00;99.90;;;;;;1892604;74;21090;-74
2022/10/29 04:30:33;;;;;;;12.73;3.90;;;12.20;99.90;;;;;;1904603;74;21078;-74
2022/10/29 04:33:00;;;;;;;9.65;3.70;;;12.20;99.90;;;;;;1893030;74;21082;-73
2022/10/29 04:35:28;;;;;;;7.45;3.47;;;12.20;99.90;;;;;;1899302;74;21074;-73
2022/10/29 04:37:55;;;;;;;9.53;3.20;;;12.20;99.90;;;;;;1898745;74;21218;-73
2022/10/29 04:40:25;;;;;;;11.73;3.42;;;12.20;99.90;;;;;;1912306;73;21083;-73
2022/10/29 04:42:52;;;;;;;;;;;12.20;99.90;;;;;;1901301;74;21051;-73
2022/10/29 04:45:19;;;;;;;6.62;3.08;;;12.10;99.90;;;;;;1903214;74;20169;-72
2022/10/29 04:47:47;;;;;;;11.57;3.30;;;12.10;99.90;;;;;;1903251;74;21156;-73
2022/10/29 04:50:14;;;;;;;6.28;2.95;;;12.10;99.90;;;;;;1914298;74;21047;-73
2022/10/29 04:52:41;;;;;;;12.37;3.33;;;12.10;99.90;;;;;;1899529;74;21082;-73
2022/10/29 04:55:09;;;;;;;9.15;3.67;;;12.10;99.90;;;;;;1902873;74;21081;-72
2022/10/29 04:57:36;;;;;;;8.85;3.50;;;12.10;99.90;;;;;;1902946;74;21081;-73
2022/10/29 05:00:04;;;;;;;7.47;3.47;;;12.00;99.90;;;;;;1911104;73;21436;-72
2022/10/29 05:02:31;;;;;;;13.08;3.27;;;12.00;99.90;;;;;;1897018;74;21047;-72
2022/10/29 05:04:58;;;;;;;7.55;3.10;;;11.90;99.90;;;;;;1901487;74;21089;-73
2022/10/29 05:07:26;;;;;;;9.08;3.55;;;11.90;99.90;;;;;;1896010;74;21086;-73
2022/10/29 05:09:53;;;;;;;7.53;4.00;;;11.80;99.90;;;;;;1911379;74;21468;-73
2022/10/29 05:12:20;;;;;;;7.92;3.30;;;11.80;99.90;;;;;;1916311;74;21083;-73
2022/10/29 05:14:48;;;;;;;7.80;3.70;;;11.70;99.90;;;;;;1906709;74;21494;-78
2022/10/29 05:17:15;;;;;;;8.08;4.25;;;11.60;99.90;;;;;;1906987;74;21164;-71
2022/10/29 05:19:42;;;;;;;8.63;3.40;;;11.70;99.90;;;;;;1891909;74;21544;-71
2022/10/29 05:22:10;;;;;;;8.38;3.47;;;11.60;99.90;;;;;;1915395;74;21087;-71
2022/10/29 05:24:37;;;;;;;10.05;3.60;;;11.50;99.90;;;;;;1907683;74;21113;-70
2022/10/29 05:27:06;;;;;;;7.85;3.72;;;11.50;99.90;;;;;;1913483;74;21560;-70
2022/10/29 05:29:33;;;;;;;8.83;3.98;;;11.50;99.90;;;;;;1899672;74;21082;-70
2022/10/29 05:32:01;;;;;;;10.55;4.12;;;11.40;99.90;;;;;;1910796;74;21073;-69
2022/10/29 05:34:28;;;;;;;18.73;3.52;;;11.50;99.90;;;;;;1902189;74;21153;-70
2022/10/29 05:36:55;;;;;;;7.05;4.17;;;11.40;99.90;;;;;;1897385;74;21047;-71
2022/10/29 05:39:22;;;;;;;11.65;3.72;;;11.30;99.90;;;;;;1919394;73;21277;-71
2022/10/29 05:41:50;;;;;;;10.85;4.05;;;11.40;99.90;;;;;;1901037;74;21078;-71
2022/10/29 05:44:17;;;;;;;10.00;3.90;;;11.30;99.90;;;;;;1903163;74;21478;-71
2022/10/29 05:46:46;;;;;;;9.40;4.20;;;11.30;99.90;;;;;;1895596;74;21152;-71
2022/10/29 05:49:13;;;;;;;9.05;3.90;;;11.30;99.90;;;;;;1898789;74;21419;-71
2022/10/29 05:51:41;;;;;;;6.58;3.70;;;11.30;99.90;;;;;;1905031;74;21074;-70
2022/10/29 05:54:08;;;;;;;10.58;4.00;;;11.30;99.90;;;;;;1910127;74;21266;-72
2022/10/29 05:56:59;;;;;;;9.13;4.03;;;11.30;99.90;;;;;;1913663;74;21152;-73
2022/10/29 05:59:13;;;;;;;14.25;4.37;;;11.30;99.90;;;;;;1904995;74;21122;-74
2022/10/29 06:01:40;;;;;;;10.63;3.98;;;11.20;99.90;;;;;;1894239;74;21159;-74
2022/10/29 06:04:07;;;;;;;9.18;4.75;;;11.20;99.90;;;;;;1902747;74;21082;-75
2022/10/29 06:06:35;;;;;;;13.93;4.55;;;11.20;99.90;;;;;;1916591;74;21224;-75
2022/10/29 06:09:02;;;;;;;8.93;4.40;;;11.20;99.90;;;;;;1905574;74;21090;-75
2022/10/29 06:11:29;;;;;;;18.82;4.65;;;11.20;99.90;;;;;;1897950;74;21494;-75
2022/10/29 06:13:57;;;;;;;10.40;3.98;;;11.10;99.90;;;;;;1897930;74;21081;-75
2022/10/29 06:16:24;;;;;;;12.37;4.67;;;11.20;99.90;;;;;;1901641;74;21477;-75
2022/10/29 06:18:51;;;;;;;7.45;4.00;;;11.30;99.90;;;;;;1903808;74;21159;-76
2022/10/29 06:21:19;;;;;;;22.35;4.50;;;11.20;99.90;;;;;;1903567;74;21466;-75
2022/10/29 06:23:46;;;;;;;10.63;3.83;;;11.20;99.90;;;;;;1898860;74;21160;-75
2022/10/29 06:26:36;;;;;;;8.05;3.67;;;11.30;99.90;;;;;;1905613;74;21140;-75
2022/10/29 06:29:06;;;;;;;5.85;3.50;;;11.30;99.90;;;;;;1902818;75;21068;-74
2022/10/29 06:31:34;;;;;;;8.05;3.87;;;11.20;99.90;;;;;;1910387;74;21078;-75
2022/10/29 06:34:01;;;;;;;7.62;3.72;;;11.30;99.90;;;;;;1896118;74;21538;-75
2022/10/29 06:36:28;;;;;;;7.45;4.00;;;11.40;99.90;;;;;;1901514;74;21074;-74
2022/10/29 06:38:56;;;;;;;8.25;4.50;;;11.40;99.90;;;;;;1909600;74;21085;-75
2022/10/29 06:41:26;;;;;;;18.45;4.28;;;11.50;99.90;;;;;;1913031;73;21042;-75
2022/10/29 06:43:52;;;;;;;13.22;4.37;;;11.40;99.90;;;;;;1907129;73;21450;-75
2022/10/29 06:46:19;;;;;;;10.30;4.58;;;11.40;99.90;;;;;;1916325;74;21575;-75
2022/10/29 06:48:47;;;;;;;8.45;3.95;;;11.50;99.90;;;;;;1900998;74;21139;-77
2022/10/29 06:51:14;;;;;;;17.15;4.40;;;11.50;99.90;;;;;;1905157;75;21140;-76
2022/10/29 06:53:41;;;;;;;11.28;4.58;;;11.60;99.90;;;;;;1910059;74;21140;-76
2022/10/29 06:56:09;;;;;;;12.28;3.92;;;11.50;99.90;;;;;;1893079;75;21069;-77
2022/10/29 06:58:36;;;;;;;10.00;3.87;;;11.60;99.90;;;;;;1899675;74;21134;-75
2022/10/29 07:01:04;;;;;;;8.48;3.92;;;11.70;99.90;;;;;;1896123;74;21147;-74
2022/10/29 07:03:31;;;;;;;8.90;4.08;;;11.70;99.90;;;;;;1912900;74;21082;-74
2022/10/29 07:05:59;;;;;;;7.80;3.92;;;11.70;99.90;;;;;;1910874;74;21047;-75
2022/10/29 07:08:27;;;;;;;12.82;3.95;;;11.80;99.90;;;;;;1901349;74;21549;-75
2022/10/29 07:10:55;;;;;;;7.28;3.55;;;11.70;99.90;;;;;;1916480;74;21151;-75
2022/10/29 07:13:22;;;;;;;11.25;3.75;;;11.70;99.90;;;;;;1907803;74;21147;-76
2022/10/29 07:15:49;;;;;;;7.05;3.65;;;11.80;99.90;;;;;;1890902;75;21214;-75
2022/10/29 07:18:16;;;;;;;8.58;4.20;;;11.70;99.90;;;;;;1901441;75;21213;-75
2022/10/29 07:20:44;;;;;;;8.85;4.03;;;11.70;99.90;;;;;;1899819;74;21081;-74
2022/10/29 07:23:12;;;;;;;10.48;4.00;;;11.70;99.90;;;;;;1899535;74;21156;-76
2022/10/29 07:25:40;;;;;;;12.30;4.37;;;11.70;99.90;;;;;;1912053;73;21557;-75
2022/10/29 07:28:16;;;;;;;8.88;3.98;;;11.80;99.90;;;;;;1897412;74;21133;-75
2022/10/29 07:30:43;;;;;;;19.27;4.20;;;12.00;99.90;;;;;;1899473;74;21075;-75
2022/10/29 07:33:11;;;;;;;6.83;3.70;;;12.10;99.90;;;;;;1909020;74;21084;-75
2022/10/29 07:35:38;;;;;;;10.70;4.70;;;12.20;99.90;;;;;;1903308;74;21081;-75
2022/10/29 07:38:06;;;;;;;15.55;4.58;;;12.10;99.90;;;;;;1913281;74;21073;-75
2022/10/29 07:40:33;;;;;;;8.95;4.50;;;12.10;99.90;;;;;;1908944;74;21082;-75
2022/10/29 07:43:00;;;;;;;12.10;4.25;;;12.20;99.90;;;;;;1904741;74;21083;-75
2022/10/29 07:45:28;;;;;;;12.98;4.42;;;12.30;99.90;;;;;;1904358;74;21074;-75
2022/10/29 07:48:02;;;;;;;8.75;3.87;;;12.50;99.90;;;;;;1896155;74;21078;-74
2022/10/29 07:50:29;;;;;;;11.65;4.05;;;12.50;99.90;;;;;;1898883;74;21222;-75
2022/10/29 07:52:59;;;;;;;14.05;4.33;;;12.60;99.90;;;;;;1888035;75;21087;-75
2022/10/29 07:55:27;;;;;;;12.80;4.05;;;12.60;99.90;;;;;;1888386;74;21504;-75
2022/10/29 07:58:01;;;;;;;14.73;3.80;;;12.80;99.90;;;;;;1888012;74;21147;-75
2022/10/29 08:00:29;;;;;;;10.08;4.12;;;12.90;99.90;;;;;;1914646;73;21128;-76
2022/10/29 08:02:56;;;;;;;11.80;4.33;;;13.00;99.90;;;;;;1893537;74;21127;-77
2022/10/29 08:05:24;;;;;;;9.80;4.22;;;13.20;99.90;;;;;;1907896;74;21257;-76
2022/10/29 08:07:54;;;;;;;9.43;3.70;;;13.30;99.90;;;;;;1914304;74;21156;-76
2022/10/29 08:10:22;;;;;;;16.57;3.70;;;13.30;99.90;;;;;;1899691;74;21573;-76
2022/10/29 08:12:54;;;;;;;7.78;4.17;;;13.40;99.90;;;;;;1906407;73;21298;-76
2022/10/29 08:15:21;;;;;;;12.85;4.10;;;13.50;99.90;;;;;;1916920;74;21172;-76
2022/10/29 08:17:49;;;;;;;12.98;4.28;;;13.80;99.90;;;;;;1889694;75;21227;-76
2022/10/29 08:20:17;;;;;;;10.58;3.45;;;13.90;99.90;;;;;;1896090;73;21460;-76
2022/10/29 08:22:44;;;;;;;10.35;4.03;;;14.10;99.90;;;;;;1913714;73;21197;-76
2022/10/29 08:25:11;;;;;;;7.28;3.92;;;14.30;99.90;;;;;;1906576;73;21121;-77
2022/10/29 08:27:39;;;;;;;11.28;4.25;;;14.70;99.90;;;;;;1911998;74;21435;-76
2022/10/29 08:30:07;;;;;;;13.48;3.85;;;14.90;99.90;;;;;;1900482;74;21108;-77
2022/10/29 08:32:34;;;;;;;13.53;4.62;;;15.00;99.90;;;;;;1895866;74;21085;-76
2022/10/29 08:35:02;;;;;;;7.20;3.47;;;15.20;99.90;;;;;;1908274;73;21185;-76
2022/10/29 08:37:30;;;;;;;14.18;4.30;;;15.60;99.90;;;;;;1911691;73;21046;-73
2022/10/29 08:39:57;;;;;;;9.93;4.42;;;15.80;99.90;;;;;;1902084;74;21155;-74
2022/10/29 08:42:33;;;;;;;8.65;3.98;;;15.90;99.90;;;;;;1908785;74;21482;-75
2022/10/29 08:45:07;;;;;;;15.13;3.70;;;16.30;99.90;;;;;;1908928;74;21057;-74
2022/10/29 08:47:43;;;;;;;10.38;3.50;;;16.70;99.90;;;;;;1899691;74;21043;-74
2022/10/29 08:50:24;;;;;;;8.55;3.22;;;17.10;99.90;;;;;;1897685;74;21115;-74
2022/10/29 08:52:51;;;;;;;13.40;3.50;;;17.00;99.90;;;;;;1913036;73;21168;-74
2022/10/29 08:55:20;;;;;;;9.60;3.25;;;16.90;99.90;;;;;;1901828;74;21066;-74
2022/10/29 08:57:53;;;;;;;17.35;3.98;;;17.00;99.90;;;;;;1903793;73;21481;-73
2022/10/29 09:00:23;;;;;;;12.33;3.12;;;17.20;99.90;;;;;;1902657;74;21079;-74
2022/10/29 09:02:58;;;;;;;7.72;3.80;;;17.00;99.90;;;;;;1910777;74;21517;-73
2022/10/29 09:05:28;;;;;;;10.95;3.40;;;17.20;99.90;;;;;;1894845;74;21074;-74
2022/10/29 09:08:26;;;;;;;10.50;3.35;;;17.60;99.90;;;;;;1908268;73;21145;-75
2022/10/29 09:14:04;;;;;;;11.08;3.65;;;18.00;99.90;;;;;;1915684;74;21157;-73
2022/10/29 09:16:41;;;;;;;11.90;3.35;;;17.90;99.90;;;;;;1896217;74;21188;-74
2022/10/29 09:19:15;;;;;;;11.30;3.50;;;18.00;99.90;;;;;;1916916;74;21212;-74
2022/10/29 09:21:55;;;;;;;11.55;3.22;;;18.20;99.90;;;;;;1912998;74;21078;-74
2022/10/29 09:24:34;;;;;;;11.28;3.40;;;18.40;99.90;;;;;;1914630;73;21274;-73
2022/10/29 09:27:04;;;;;;;11.18;3.40;;;18.40;99.90;;;;;;1848225;76;21102;-73
2022/10/29 09:29:53;;;;;;;9.03;2.72;;;18.40;99.90;;;;;;1905794;74;21608;-73
2022/10/29 09:32:38;;;;;;;11.33;2.98;;;18.50;99.90;;;;;;1905404;74;21078;-74
2022/10/29 09:35:10;;;;;;;9.75;3.33;;;18.70;99.90;;;;;;1908139;73;21132;-74
2022/10/29 09:37:57;;;;;;;13.88;2.67;;;18.80;99.90;;;;;;1915982;73;21181;-75
2022/10/29 09:40:31;;;;;;;10.55;3.22;;;18.90;99.90;;;;;;1910931;74;21217;-74
2022/10/29 09:42:59;;;;;;;12.47;3.12;;;19.10;99.90;;;;;;1893899;74;21043;-74
2022/10/29 09:45:48;;;;;;;10.80;2.80;;;19.20;99.90;;;;;;1910657;74;21125;-75
2022/10/29 09:48:18;;;;;;;7.90;3.08;;;19.20;99.90;;;;;;1892221;74;21222;-74
2022/10/29 09:51:04;;;;;;;11.05;3.30;;;19.10;99.90;;;;;;1892563;74;21079;-74
2022/10/29 09:53:31;;;;;;;14.43;3.50;;;19.30;99.90;;;;;;1889310;73;21457;-76
2022/10/29 09:55:58;;;;;;;8.25;3.15;;;19.40;99.90;;;;;;1899216;74;21087;-74
2022/10/29 09:58:26;;;;;;;12.33;4.70;;;19.70;99.90;;;;;;1896760;74;21077;-73
2022/10/29 10:00:56;;;;;;;7.22;3.15;;;19.90;99.90;;;;;;1915927;74;21085;-73
2022/10/29 10:03:36;;;;;;;10.88;3.10;;;19.90;99.90;;;;;;1905652;74;21086;-74
2022/10/29 10:06:08;;;;;;;5.50;2.60;;;20.10;99.90;;;;;;1897624;74;21063;-73
2022/10/29 10:08:37;;;;;;;9.48;2.80;;;20.00;99.90;;;;;;1896312;73;21089;-74
2022/10/29 10:11:06;;;;;;;18.17;3.42;;;20.20;99.90;;;;;;1889102;74;21074;-74
2022/10/29 10:13:38;;;;;;;11.10;3.30;;;20.50;99.90;;;;;;1914549;74;21078;-74
2022/10/29 10:16:05;;;;;;;13.15;3.10;;;20.60;99.90;;;;;;1912173;74;21090;-74
2022/10/29 10:18:41;;;;;;;10.28;2.87;;;20.70;99.90;;;;;;1909720;75;21086;-74
2022/10/29 10:21:10;;;;;;;8.40;2.58;;;20.60;99.90;;;;;;1898604;74;21455;-74
2022/10/29 10:23:48;;;;;;;12.78;3.50;;;21.00;99.90;;;;;;1905749;73;21106;-73
2022/10/29 10:26:45;;;;;;;7.95;2.75;;;21.10;99.90;;;;;;1910228;74;21467;-75
2022/10/29 10:29:15;;;;;;;9.43;2.87;;;21.30;99.90;;;;;;1915081;73;21454;-75
2022/10/29 10:31:49;;;;;;;19.40;2.25;;;21.60;99.90;;;;;;1910312;74;21467;-74
2022/10/29 10:34:19;;;;;;;7.50;2.25;;;21.60;99.90;;;;;;1898936;74;21085;-74
2022/10/29 10:36:51;;;;;;;7.08;2.83;;;21.90;99.90;;;;;;1904224;74;21159;-73
2022/10/29 10:39:30;;;;;;;12.82;3.90;;;21.70;99.90;;;;;;1898136;73;21269;-74
2022/10/29 10:42:00;;;;;;;14.00;3.17;;;22.00;99.90;;;;;;1892497;74;21422;-74
2022/10/29 10:44:27;;;;;;;14.90;3.12;;;22.20;99.90;;;;;;1895539;74;21250;-74
2022/10/29 10:46:59;;;;;;;8.20;2.55;;;22.20;99.90;;;;;;1902628;74;21136;-73
2022/10/29 10:49:33;;;;;;;14.93;3.03;;;22.20;99.90;;;;;;1882926;75;21160;-74
2022/10/29 10:52:05;;;;;;;9.25;2.47;;;22.20;99.90;;;;;;1893802;74;21087;-74
2022/10/29 10:54:43;;;;;;;5.08;2.42;;;22.40;99.90;;;;;;1905982;74;21077;-74
2022/10/29 10:57:15;;;;;;;8.78;2.62;;;22.80;99.90;;;;;;1908998;74;21152;-75
2022/10/29 11:00:05;;;;;;;9.45;3.10;;;23.00;99.90;;;;;;1897316;75;21428;-73
2022/10/29 11:02:50;;;;;;;11.60;2.83;;;22.70;99.90;;;;;;1910116;74;21134;-75
2022/10/29 11:05:23;;;;;;;6.42;2.55;;;22.80;99.90;;;;;;1850483;76;21457;-75
2022/10/29 11:08:12;;;;;;;10.38;2.30;;;23.00;99.90;;;;;;1903386;74;21074;-74
2022/10/29 11:10:51;;;;;;;6.28;2.45;;;23.20;99.90;;;;;;1907332;74;21055;-74
2022/10/29 11:13:21;;;;;;;8.73;2.80;;;23.00;99.90;;;;;;1903041;73;21091;-72
2022/10/29 11:16:16;;;;;;;9.60;3.30;;;23.00;99.90;;;;;;1909507;74;21078;-74
2022/10/29 11:19:14;;;;;;;7.60;2.60;;;23.20;99.90;;;;;;1904345;74;21206;-74
2022/10/29 11:21:50;;;;;;;7.00;2.15;;;23.80;99.90;;;;;;1906933;74;21473;-76
2022/10/29 11:24:40;;;;;;;10.75;2.50;;;23.50;99.90;;;;;;1905092;74;21047;-73
2022/10/29 11:27:19;;;;;;;11.93;2.75;;;23.90;99.90;;;;;;1908738;74;21082;-74
2022/10/29 11:30:07;;;;;;;8.78;2.75;;;23.90;99.90;;;;;;1909667;73;21339;-75
2022/10/29 11:33:05;;;;;;;12.03;3.35;;;23.60;99.90;;;;;;1899095;74;21078;-73
2022/10/29 11:36:01;;;;;;;12.30;2.62;;;23.90;99.90;;;;;;1907354;74;21104;-74
2022/10/29 11:38:33;;;;;;;9.18;2.70;;;24.20;99.90;;;;;;1903377;74;21547;-74
2022/10/29 11:41:04;;;;;;;10.68;2.83;;;24.20;99.90;;;;;;1904126;74;21135;-75
2022/10/29 11:43:32;;;;;;;15.13;2.80;;;24.20;99.90;;;;;;1908148;74;21234;-74
2022/10/29 11:46:15;;;;;;;12.25;2.85;;;24.40;99.90;;;;;;1916514;74;21090;-72
2022/10/29 11:48:48;;;;;;;9.93;2.70;;;24.30;99.90;;;;;;1918447;73;21191;-73
2022/10/29 11:51:19;;;;;;;7.62;2.50;;;24.60;99.90;;;;;;1910122;74;21503;-72
2022/10/29 11:54:09;;;;;;;11.00;2.67;;;24.80;99.90;;;;;;1914404;75;21087;-74
2022/10/29 11:56:43;;;;;;;;;;;24.70;99.90;;;;;;1911434;74;21181;-74
2022/10/29 11:59:25;;;;;;;10.40;2.08;;;24.70;99.90;;;;;;1916286;74;20345;-74
2022/10/29 12:02:14;;;;;;;8.55;2.58;;;25.00;99.90;;;;;;1877706;75;21100;-74
2022/10/29 12:04:59;;;;;;;9.68;2.50;;;25.10;99.90;;;;;;1908541;73;21121;-74
2022/10/29 12:07:38;;;;;;;6.25;1.92;;;25.30;99.90;;;;;;1912636;73;21078;-73
2022/10/29 12:10:18;;;;;;;8.50;2.42;;;25.20;99.90;;;;;;1916734;74;21132;-73
2022/10/29 12:12:51;;;;;;;10.97;2.83;;;25.40;99.90;;;;;;1911542;74;21156;-73
2022/10/29 12:15:25;;;;;;;10.43;2.30;;;25.30;99.90;;;;;;1914360;73;21677;-73
2022/10/29 12:18:06;;;;;;;14.05;3.08;;;25.90;99.90;;;;;;1900087;74;21206;-73
2022/10/29 12:20:45;;;;;;;20.23;3.12;;;25.70;99.90;;;;;;1913379;73;21528;-73
2022/10/29 12:23:25;;;;;;;10.38;2.80;;;25.50;99.90;;;;;;1914938;73;21147;-72
2022/10/29 12:26:15;;;;;;;7.03;2.27;;;25.60;99.90;;;;;;1867737;76;21139;-72
2022/10/29 12:28:48;;;;;;;8.03;2.45;;;25.80;99.90;;;;;;1909819;73;21493;-74
2022/10/29 12:31:37;;;;;;;6.42;2.50;;;25.70;99.90;;;;;;1911158;73;21140;-75
2022/10/29 12:34:10;;;;;;;11.53;3.22;;;25.60;99.90;;;;;;1868856;76;21499;-75
2022/10/29 12:36:55;;;;;;;10.90;3.33;;;25.80;99.90;;;;;;1912327;74;21120;-73
2022/10/29 12:39:28;;;;;;;10.68;2.47;;;25.70;99.90;;;;;;1906146;74;21474;-73
2022/10/29 12:41:59;;;;;;;8.90;2.87;;;25.50;99.90;;;;;;1912790;74;21159;-73
2022/10/29 12:44:35;;;;;;;11.53;3.65;;;25.70;99.90;;;;;;1899810;74;21083;-72
2022/10/29 12:47:09;;;;;;;8.65;3.27;;;25.50;99.90;;;;;;1912156;73;21557;-73
2022/10/29 12:49:45;;;;;;;9.48;2.50;;;25.00;99.90;;;;;;1905994;74;21470;-72
2022/10/29 12:52:34;;;;;;;9.90;2.83;;;25.30;99.90;;;;;;1910434;74;21121;-72
2022/10/29 12:55:02;;;;;;;9.80;2.10;;;25.40;99.90;;;;;;1915788;74;21194;-74
2022/10/29 12:57:35;;;;;;;6.00;2.20;;;25.70;99.90;;;;;;1913527;74;21213;-73
2022/10/29 13:00:24;;;;;;;10.85;2.25;;;25.70;99.90;;;;;;1912664;74;21157;-73
2022/10/29 13:02:52;;;;;;;12.13;3.22;;;25.60;99.90;;;;;;1897451;74;21242;-74
2022/10/29 13:05:35;;;;;;;13.13;3.30;;;25.50;99.90;;;;;;1908026;73;21180;-73
2022/10/29 13:08:05;;;;;;;9.33;2.52;;;25.70;99.90;;;;;;1918659;74;21540;-72
2022/10/29 13:10:36;;;;;;;9.83;2.77;;;25.50;99.90;;;;;;1914038;74;21129;-73